Impacts TAF Board INFO
FOR SITUATIONAL AWARENESS. NOT TO BE USED FOR FLIGHT PLANNING PURPOSES.
IDs:

KMEM - Memphis Intl, TN, US

Issued at 0851 UTC 23 May 2018
Updated at 1110 UTC 23 May 2018
Potential Impact None Slight Moderate High
Time1054Z 23/12Z 23/13Z 23/14Z 23/15Z 23/16Z 23/17Z 23/18Z 23/19Z 23/20Z 23/21Z 23/22Z 23/23Z 24/00Z>>
Type OBS PRVL PRVL PRVL PRVL PRVL PRVL PRVL PRVL PRVL PRVL PRVL PRVL PRVL
VIS 10 >6 >6 >6 >6 >6 >6 >6 >6 >6 >6 >6 >6 >6
CIG 250 250 250 250 -- -- -- -- 40 40 40 40 40 40
Cover BKN BKN BKN BKN SCT SCT SCT SCT BKN BKN BKN BKN BKN BKN
FltCat VFR VFR VFR VFR VFR VFR VFR VFR VFR VFR VFR VFR VFR VFR
WX -- -- -- -- -- -- -- -- VCSH VCSH VCSH VCSH VCSH VCSH
WDir 150 VRB VRB VRB 50 50 50 50 60 60 60 60 60 60
WSpd 3 4 4 4 4 4 4 4 6 6 6 6 6 6
WGst -- -- -- -- -- -- -- -- -- -- -- -- -- --

Raw TAF
KMEM 230851Z 2309/2412 VRB04KT P6SM BKN250
  FM231500 05004KT P6SM SCT040
  FM231900 06006KT P6SM VCSH BKN040 BKN150
  FM240100 07004KT P6SM SCT250


Raw METAR
KMEM 231054Z 15003KT 10SM FEW180 BKN250 22/21 A3005 RMK AO2 SLP173 T02170211 $
KMEM 230954Z 09003KT 10SM FEW180 SCT250 22/21 A3003 RMK AO2 SLP167 T02220211 $
KMEM 230854Z VRB05KT 10SM BKN250 23/21 A3002 RMK AO2 SLP161 T02330211 55002 $

METAR Board
Radar Display
Forecast Discussion

FOR SITUATIONAL AWARENESS. NOT TO BE USED FOR FLIGHT PLANNING PURPOSES.